sensor_id;sensor_type;location;lat;lon;timestamp;pressure;altitude;pressure_sealevel;temperature;humidity
7335;BME280;3708;42.632;23.378;2022-09-27T00:00:58;93416.31;;;18.44;67.60
7335;BME280;3708;42.632;23.378;2022-09-27T00:03:25;93422.13;;;18.07;68.77
7335;BME280;3708;42.632;23.378;2022-09-27T00:06:02;93406.31;;;17.86;69.34
7335;BME280;3708;42.632;23.378;2022-09-27T00:08:30;93414.59;;;18.02;69.13
7335;BME280;3708;42.632;23.378;2022-09-27T00:10:59;93410.03;;;18.06;69.26
7335;BME280;3708;42.632;23.378;2022-09-27T00:13:27;93405.41;;;18.24;68.53
7335;BME280;3708;42.632;23.378;2022-09-27T00:15:57;93411.44;;;18.32;68.41
7335;BME280;3708;42.632;23.378;2022-09-27T00:18:24;93419.72;;;18.41;67.89
7335;BME280;3708;42.632;23.378;2022-09-27T00:20:51;93409.81;;;18.56;67.41
7335;BME280;3708;42.632;23.378;2022-09-27T00:23:19;93420.91;;;18.29;67.81
7335;BME280;3708;42.632;23.378;2022-09-27T00:25:56;93426.06;;;17.57;70.75
7335;BME280;3708;42.632;23.378;2022-09-27T00:28:23;93407.94;;;17.24;72.67
7335;BME280;3708;42.632;23.378;2022-09-27T00:30:50;93403.41;;;17.24;73.54
7335;BME280;3708;42.632;23.378;2022-09-27T00:33:17;93410.94;;;17.54;72.47
7335;BME280;3708;42.632;23.378;2022-09-27T00:35:44;93427.59;;;17.12;74.48
7335;BME280;3708;42.632;23.378;2022-09-27T00:38:11;93419.25;;;16.82;74.93
7335;BME280;3708;42.632;23.378;2022-09-27T00:40:40;93411.72;;;17.05;74.71
7335;BME280;3708;42.632;23.378;2022-09-27T00:43:15;93423.03;;;16.67;75.77
7335;BME280;3708;42.632;23.378;2022-09-27T00:45:47;93430.63;;;17.11;74.94
7335;BME280;3708;42.632;23.378;2022-09-27T00:48:18;93436.28;;;17.30;73.94
7335;BME280;3708;42.632;23.378;2022-09-27T00:50:49;93409.81;;;17.44;73.21
7335;BME280;3708;42.632;23.378;2022-09-27T00:53:19;93430.59;;;17.67;72.59
7335;BME280;3708;42.632;23.378;2022-09-27T00:55:52;93449.09;;;17.78;72.51
7335;BME280;3708;42.632;23.378;2022-09-27T00:58:22;93433.94;;;17.82;72.15
7335;BME280;3708;42.632;23.378;2022-09-27T01:00:52;93432.03;;;17.93;71.39
7335;BME280;3708;42.632;23.378;2022-09-27T01:03:26;93407.72;;;18.12;70.92
7335;BME280;3708;42.632;23.378;2022-09-27T01:05:56;93398.38;;;17.86;71.42
7335;BME280;3708;42.632;23.378;2022-09-27T01:08:24;93404.72;;;18.03;70.94
7335;BME280;3708;42.632;23.378;2022-09-27T01:11:03;93397.59;;;17.96;70.53
7335;BME280;3708;42.632;23.378;2022-09-27T01:13:40;93382.44;;;18.00;70.57
7335;BME280;3708;42.632;23.378;2022-09-27T01:16:14;93394.44;;;18.19;70.18
7335;BME280;3708;42.632;23.378;2022-09-27T01:18:54;93387.25;;;18.19;69.70
7335;BME280;3708;42.632;23.378;2022-09-27T01:21:44;93408.38;;;18.34;69.02
7335;BME280;3708;42.632;23.378;2022-09-27T01:24:28;93391.91;;;17.94;68.53
7335;BME280;3708;42.632;23.378;2022-09-27T01:30:20;93392.34;;;17.79;70.16
7335;BME280;3708;42.632;23.378;2022-09-27T01:32:53;93383.66;;;17.75;69.87
7335;BME280;3708;42.632;23.378;2022-09-27T01:35:30;93383.59;;;17.89;69.43
7335;BME280;3708;42.632;23.378;2022-09-27T01:38:12;93388.47;;;18.01;69.47
7335;BME280;3708;42.632;23.378;2022-09-27T01:40:48;93348.78;;;17.94;69.39
7335;BME280;3708;42.632;23.378;2022-09-27T01:43:22;93387.50;;;17.38;70.62
7335;BME280;3708;42.632;23.378;2022-09-27T01:45:55;93375.00;;;17.42;70.74
7335;BME280;3708;42.632;23.378;2022-09-27T01:48:29;93393.53;;;17.60;70.05
7335;BME280;3708;42.632;23.378;2022-09-27T01:51:01;93372.75;;;17.55;70.42
7335;BME280;3708;42.632;23.378;2022-09-27T01:53:32;93373.13;;;17.57;70.57
7335;BME280;3708;42.632;23.378;2022-09-27T01:56:03;93380.69;;;17.59;70.52
7335;BME280;3708;42.632;23.378;2022-09-27T01:58:36;93382.22;;;17.17;72.20
7335;BME280;3708;42.632;23.378;2022-09-27T02:01:07;93399.63;;;16.83;73.80
7335;BME280;3708;42.632;23.378;2022-09-27T02:03:37;93386.72;;;16.46;75.05
7335;BME280;3708;42.632;23.378;2022-09-27T02:06:09;93380.72;;;16.56;75.94
7335;BME280;3708;42.632;23.378;2022-09-27T02:08:40;93344.09;;;16.69;75.61
7335;BME280;3708;42.632;23.378;2022-09-27T02:11:10;93375.44;;;16.74;75.09
7335;BME280;3708;42.632;23.378;2022-09-27T02:13:43;93377.34;;;16.84;74.92
7335;BME280;3708;42.632;23.378;2022-09-27T02:16:21;93354.28;;;16.95;74.88
7335;BME280;3708;42.632;23.378;2022-09-27T02:18:55;93364.88;;;17.16;73.69
7335;BME280;3708;42.632;23.378;2022-09-27T02:21:31;93340.69;;;17.00;73.47
7335;BME280;3708;42.632;23.378;2022-09-27T02:24:04;93323.66;;;17.15;73.48
7335;BME280;3708;42.632;23.378;2022-09-27T02:26:37;93337.59;;;17.33;72.73
7335;BME280;3708;42.632;23.378;2022-09-27T02:29:08;93370.88;;;17.34;72.62
7335;BME280;3708;42.632;23.378;2022-09-27T02:31:38;93331.94;;;16.19;78.51
7335;BME280;3708;42.632;23.378;2022-09-27T02:34:08;93303.31;;;16.84;76.24
7335;BME280;3708;42.632;23.378;2022-09-27T02:36:37;93285.81;;;17.25;74.90
7335;BME280;3708;42.632;23.378;2022-09-27T02:39:04;93293.72;;;17.46;74.27
7335;BME280;3708;42.632;23.378;2022-09-27T02:41:31;93285.78;;;17.50;73.22
7335;BME280;3708;42.632;23.378;2022-09-27T02:44:01;93277.03;;;17.64;72.78
7335;BME280;3708;42.632;23.378;2022-09-27T02:47:01;93277.44;;;17.44;72.52
7335;BME280;3708;42.632;23.378;2022-09-27T02:49:40;93286.13;;;17.48;72.35
7335;BME280;3708;42.632;23.378;2022-09-27T02:52:16;93302.75;;;17.49;71.86
7335;BME280;3708;42.632;23.378;2022-09-27T02:54:53;93292.25;;;17.31;72.58
7335;BME280;3708;42.632;23.378;2022-09-27T02:57:29;93296.50;;;16.90;74.47
7335;BME280;3708;42.632;23.378;2022-09-27T03:00:04;93290.75;;;17.13;74.02
7335;BME280;3708;42.632;23.378;2022-09-27T03:02:36;93305.16;;;17.01;73.94
7335;BME280;3708;42.632;23.378;2022-09-27T03:05:09;93324.81;;;16.40;76.50
7335;BME280;3708;42.632;23.378;2022-09-27T03:07:38;93295.72;;;16.44;77.59
7335;BME280;3708;42.632;23.378;2022-09-27T03:10:06;93258.72;;;16.79;75.71
7335;BME280;3708;42.632;23.378;2022-09-27T03:12:33;93247.72;;;16.91;75.05
7335;BME280;3708;42.632;23.378;2022-09-27T03:15:00;93268.13;;;16.94;74.81
7335;BME280;3708;42.632;23.378;2022-09-27T03:17:27;93256.47;;;16.53;76.88
7335;BME280;3708;42.632;23.378;2022-09-27T03:19:56;93240.59;;;16.81;75.54
7335;BME280;3708;42.632;23.378;2022-09-27T03:22:23;93265.88;;;16.78;75.75
7335;BME280;3708;42.632;23.378;2022-09-27T03:24:51;93237.97;;;16.21;78.13
7335;BME280;3708;42.632;23.378;2022-09-27T03:27:18;93236.09;;;16.57;77.33
7335;BME280;3708;42.632;23.378;2022-09-27T03:29:45;93260.59;;;16.12;78.51
7335;BME280;3708;42.632;23.378;2022-09-27T03:32:12;93240.19;;;15.94;80.79
7335;BME280;3708;42.632;23.378;2022-09-27T03:34:39;93237.94;;;16.18;80.73
7335;BME280;3708;42.632;23.378;2022-09-27T03:37:08;93250.41;;;16.49;78.42
7335;BME280;3708;42.632;23.378;2022-09-27T03:39:34;93252.31;;;16.24;78.72
7335;BME280;3708;42.632;23.378;2022-09-27T03:42:02;93231.91;;;16.49;78.49
7335;BME280;3708;42.632;23.378;2022-09-27T03:44:29;93228.16;;;16.50;78.16
7335;BME280;3708;42.632;23.378;2022-09-27T03:46:59;93238.72;;;16.18;78.48
7335;BME280;3708;42.632;23.378;2022-09-27T03:49:26;93224.72;;;15.75;81.79
7335;BME280;3708;42.632;23.378;2022-09-27T03:51:56;93246.97;;;15.81;81.27
7335;BME280;3708;42.632;23.378;2022-09-27T03:54:24;93230.34;;;15.63;84.45
7335;BME280;3708;42.632;23.378;2022-09-27T03:56:51;93252.66;;;16.33;82.15
7335;BME280;3708;42.632;23.378;2022-09-27T03:59:18;93263.63;;;16.17;80.58
7335;BME280;3708;42.632;23.378;2022-09-27T04:01:45;93260.84;;;15.50;85.93
7335;BME280;3708;42.632;23.378;2022-09-27T04:04:12;93253.66;;;15.51;83.57
7335;BME280;3708;42.632;23.378;2022-09-27T04:06:39;93254.09;;;15.60;83.83
7335;BME280;3708;42.632;23.378;2022-09-27T04:09:06;93254.44;;;15.51;84.32
7335;BME280;3708;42.632;23.378;2022-09-27T04:11:34;93250.59;;;15.31;86.75
7335;BME280;3708;42.632;23.378;2022-09-27T04:14:01;93246.81;;;15.32;87.24
7335;BME280;3708;42.632;23.378;2022-09-27T04:16:30;93225.72;;;15.39;86.87
7335;BME280;3708;42.632;23.378;2022-09-27T04:18:57;93236.38;;;15.67;86.45
7335;BME280;3708;42.632;23.378;2022-09-27T04:21:24;93222.00;;;15.44;87.58
7335;BME280;3708;42.632;23.378;2022-09-27T04:23:51;93224.28;;;15.52;87.27
7335;BME280;3708;42.632;23.378;2022-09-27T04:26:18;93218.31;;;15.94;85.84
7335;BME280;3708;42.632;23.378;2022-09-27T04:28:47;93242.09;;;15.90;84.39
7335;BME280;3708;42.632;23.378;2022-09-27T04:31:15;93240.53;;;15.68;84.92
7335;BME280;3708;42.632;23.378;2022-09-27T04:33:42;93241.72;;;16.06;84.49
7335;BME280;3708;42.632;23.378;2022-09-27T04:36:14;93236.44;;;15.85;85.42
7335;BME280;3708;42.632;23.378;2022-09-27T04:38:51;93235.31;;;16.11;83.41
7335;BME280;3708;42.632;23.378;2022-09-27T04:41:18;93232.28;;;16.01;83.41
7335;BME280;3708;42.632;23.378;2022-09-27T04:43:48;93229.59;;;15.66;84.26
7335;BME280;3708;42.632;23.378;2022-09-27T04:46:15;93236.47;;;16.24;83.57
7335;BME280;3708;42.632;23.378;2022-09-27T04:48:42;93237.59;;;16.33;82.14
7335;BME280;3708;42.632;23.378;2022-09-27T04:51:09;93249.28;;;16.39;81.23
7335;BME280;3708;42.632;23.378;2022-09-27T04:53:37;93262.13;;;16.44;81.47
7335;BME280;3708;42.632;23.378;2022-09-27T04:56:05;93259.84;;;16.85;80.01
7335;BME280;3708;42.632;23.378;2022-09-27T04:58:34;93272.66;;;16.94;79.23
7335;BME280;3708;42.632;23.378;2022-09-27T05:01:04;93268.16;;;16.80;78.29
7335;BME280;3708;42.632;23.378;2022-09-27T05:03:31;93260.53;;;17.07;78.53
7335;BME280;3708;42.632;23.378;2022-09-27T05:05:59;93251.91;;;16.39;79.64
7335;BME280;3708;42.632;23.378;2022-09-27T05:08:31;93256.09;;;16.47;80.94
7335;BME280;3708;42.632;23.378;2022-09-27T05:10:58;93251.53;;;16.90;78.88
7335;BME280;3708;42.632;23.378;2022-09-27T05:13:29;93253.41;;;16.83;79.06
7335;BME280;3708;42.632;23.378;2022-09-27T05:16:02;93248.47;;;16.95;77.41
7335;BME280;3708;42.632;23.378;2022-09-27T05:18:30;93246.09;;;17.36;77.36
7335;BME280;3708;42.632;23.378;2022-09-27T05:20:57;93240.00;;;17.53;76.62
7335;BME280;3708;42.632;23.378;2022-09-27T05:23:25;93239.94;;;17.60;75.52
7335;BME280;3708;42.632;23.378;2022-09-27T05:26:04;93232.28;;;17.83;75.38
7335;BME280;3708;42.632;23.378;2022-09-27T05:28:32;93242.09;;;17.83;74.56
7335;BME280;3708;42.632;23.378;2022-09-27T05:31:00;93221.84;;;17.55;74.38
7335;BME280;3708;42.632;23.378;2022-09-27T05:33:28;93233.59;;;17.36;75.10
7335;BME280;3708;42.632;23.378;2022-09-27T05:35:57;93223.44;;;17.24;75.95
7335;BME280;3708;42.632;23.378;2022-09-27T05:38:24;93220.28;;;17.61;74.99
7335;BME280;3708;42.632;23.378;2022-09-27T05:40:52;93236.13;;;17.72;74.24
7335;BME280;3708;42.632;23.378;2022-09-27T05:43:20;93245.03;;;17.99;74.09
7335;BME280;3708;42.632;23.378;2022-09-27T05:45:49;93257.00;;;18.21;73.67
7335;BME280;3708;42.632;23.378;2022-09-27T05:48:17;93249.84;;;18.14;73.69
7335;BME280;3708;42.632;23.378;2022-09-27T05:50:48;93235.31;;;18.33;73.30
7335;BME280;3708;42.632;23.378;2022-09-27T05:53:16;93249.28;;;18.44;72.67
7335;BME280;3708;42.632;23.378;2022-09-27T05:55:43;93255.97;;;18.59;72.23
7335;BME280;3708;42.632;23.378;2022-09-27T05:58:10;93239.38;;;18.48;72.44
7335;BME280;3708;42.632;23.378;2022-09-27T06:00:38;93232.53;;;18.54;71.94
7335;BME280;3708;42.632;23.378;2022-09-27T06:03:05;93226.38;;;18.64;71.44
7335;BME280;3708;42.632;23.378;2022-09-27T06:05:35;93232.41;;;18.68;71.25
7335;BME280;3708;42.632;23.378;2022-09-27T06:08:05;93230.81;;;18.78;71.06
7335;BME280;3708;42.632;23.378;2022-09-27T06:10:33;93237.59;;;18.82;70.78
7335;BME280;3708;42.632;23.378;2022-09-27T06:13:02;93236.44;;;18.83;70.34
7335;BME280;3708;42.632;23.378;2022-09-27T06:15:31;93233.09;;;18.76;70.18
7335;BME280;3708;42.632;23.378;2022-09-27T06:18:02;93217.19;;;18.76;70.09
7335;BME280;3708;42.632;23.378;2022-09-27T06:20:31;93221.63;;;18.45;71.04
7335;BME280;3708;42.632;23.378;2022-09-27T06:23:05;93223.88;;;18.43;71.28
7335;BME280;3708;42.632;23.378;2022-09-27T06:25:32;93221.50;;;18.59;71.37
7335;BME280;3708;42.632;23.378;2022-09-27T06:28:00;93212.88;;;18.48;71.46
7335;BME280;3708;42.632;23.378;2022-09-27T06:30:28;93215.59;;;18.38;72.02
7335;BME280;3708;42.632;23.378;2022-09-27T06:32:56;93218.84;;;18.59;71.72
7335;BME280;3708;42.632;23.378;2022-09-27T06:35:27;93222.50;;;18.72;71.39
7335;BME280;3708;42.632;23.378;2022-09-27T06:38:04;93239.41;;;18.89;70.98
7335;BME280;3708;42.632;23.378;2022-09-27T06:40:33;93229.81;;;18.98;70.49
7335;BME280;3708;42.632;23.378;2022-09-27T06:43:01;93223.84;;;18.91;70.56
7335;BME280;3708;42.632;23.378;2022-09-27T06:45:29;93224.81;;;19.08;70.75
7335;BME280;3708;42.632;23.378;2022-09-27T06:47:57;93228.06;;;19.22;70.37
7335;BME280;3708;42.632;23.378;2022-09-27T06:50:24;93237.53;;;19.23;69.90
7335;BME280;3708;42.632;23.378;2022-09-27T06:52:51;93232.47;;;19.32;69.57
7335;BME280;3708;42.632;23.378;2022-09-27T06:55:23;93232.00;;;19.11;69.67
7335;BME280;3708;42.632;23.378;2022-09-27T06:57:55;93232.97;;;19.24;69.00
7335;BME280;3708;42.632;23.378;2022-09-27T07:00:40;93236.34;;;19.28;68.83
7335;BME280;3708;42.632;23.378;2022-09-27T07:03:08;93234.13;;;19.23;68.73
7335;BME280;3708;42.632;23.378;2022-09-27T07:05:36;93231.78;;;19.28;69.01
7335;BME280;3708;42.632;23.378;2022-09-27T07:08:04;93240.97;;;19.20;68.81
7335;BME280;3708;42.632;23.378;2022-09-27T07:10:34;93239.84;;;19.21;69.13
7335;BME280;3708;42.632;23.378;2022-09-27T07:13:03;93234.06;;;19.30;69.03
7335;BME280;3708;42.632;23.378;2022-09-27T07:15:32;93253.09;;;19.21;68.83
7335;BME280;3708;42.632;23.378;2022-09-27T07:18:01;93232.53;;;19.29;68.73
7335;BME280;3708;42.632;23.378;2022-09-27T07:20:32;93231.91;;;19.18;68.84
7335;BME280;3708;42.632;23.378;2022-09-27T07:23:02;93215.53;;;19.23;68.85
7335;BME280;3708;42.632;23.378;2022-09-27T07:25:31;93212.81;;;19.30;68.87
7335;BME280;3708;42.632;23.378;2022-09-27T07:28:02;93220.63;;;19.07;69.29
7335;BME280;3708;42.632;23.378;2022-09-27T07:30:30;93224.88;;;18.12;73.73
7335;BME280;3708;42.632;23.378;2022-09-27T07:32:59;93212.16;;;18.44;73.24
7335;BME280;3708;42.632;23.378;2022-09-27T07:35:26;93224.50;;;18.61;72.43
7335;BME280;3708;42.632;23.378;2022-09-27T07:37:55;93221.00;;;18.71;72.31
7335;BME280;3708;42.632;23.378;2022-09-27T07:40:24;93237.91;;;18.44;72.75
7335;BME280;3708;42.632;23.378;2022-09-27T07:42:54;93245.00;;;18.57;72.48
7335;BME280;3708;42.632;23.378;2022-09-27T07:45:24;93251.97;;;17.79;75.33
7335;BME280;3708;42.632;23.378;2022-09-27T07:47:51;93266.47;;;17.53;75.89
7335;BME280;3708;42.632;23.378;2022-09-27T07:50:19;93271.81;;;17.28;77.28
7335;BME280;3708;42.632;23.378;2022-09-27T07:52:47;93260.75;;;17.58;76.39
7335;BME280;3708;42.632;23.378;2022-09-27T07:55:16;93255.13;;;17.52;76.51
7335;BME280;3708;42.632;23.378;2022-09-27T07:57:44;93272.03;;;17.73;75.84
7335;BME280;3708;42.632;23.378;2022-09-27T08:00:13;93265.69;;;17.56;75.94
7335;BME280;3708;42.632;23.378;2022-09-27T08:02:43;93264.94;;;17.56;76.32
7335;BME280;3708;42.632;23.378;2022-09-27T08:05:11;93255.78;;;17.74;75.70
7335;BME280;3708;42.632;23.378;2022-09-27T08:07:39;93235.88;;;17.34;77.66
7335;BME280;3708;42.632;23.378;2022-09-27T08:10:08;93230.56;;;17.41;78.11
7335;BME280;3708;42.632;23.378;2022-09-27T08:12:35;93215.75;;;17.62;78.62
7335;BME280;3708;42.632;23.378;2022-09-27T08:15:03;93218.44;;;18.09;76.93
7335;BME280;3708;42.632;23.378;2022-09-27T08:17:32;93216.78;;;18.29;76.10
7335;BME280;3708;42.632;23.378;2022-09-27T08:20:00;93221.25;;;18.43;75.09
7335;BME280;3708;42.632;23.378;2022-09-27T08:22:30;93231.84;;;18.40;74.87
7335;BME280;3708;42.632;23.378;2022-09-27T08:24:57;93268.69;;;18.27;74.59
7335;BME280;3708;42.632;23.378;2022-09-27T08:27:26;93244.88;;;18.23;74.51
7335;BME280;3708;42.632;23.378;2022-09-27T08:29:53;93241.69;;;18.43;73.85
7335;BME280;3708;42.632;23.378;2022-09-27T08:32:20;93228.41;;;18.50;73.55
7335;BME280;3708;42.632;23.378;2022-09-27T08:34:47;93230.44;;;18.28;74.27
7335;BME280;3708;42.632;23.378;2022-09-27T08:37:16;93227.75;;;17.80;75.87
7335;BME280;3708;42.632;23.378;2022-09-27T08:39:43;93210.78;;;18.25;74.96
7335;BME280;3708;42.632;23.378;2022-09-27T08:42:22;93202.25;;;18.48;74.36
7335;BME280;3708;42.632;23.378;2022-09-27T08:44:56;93184.75;;;18.58;73.64
7335;BME280;3708;42.632;23.378;2022-09-27T08:47:28;93217.81;;;18.43;74.34
7335;BME280;3708;42.632;23.378;2022-09-27T08:50:03;93220.16;;;18.37;73.89
7335;BME280;3708;42.632;23.378;2022-09-27T08:52:39;93196.28;;;18.37;73.80
7335;BME280;3708;42.632;23.378;2022-09-27T08:55:18;93196.16;;;18.55;73.25
7335;BME280;3708;42.632;23.378;2022-09-27T08:57:49;93203.53;;;18.77;72.61
7335;BME280;3708;42.632;23.378;2022-09-27T09:00:20;93203.94;;;18.28;73.51
7335;BME280;3708;42.632;23.378;2022-09-27T09:02:48;93215.47;;;18.55;72.48
7335;BME280;3708;42.632;23.378;2022-09-27T09:05:20;93209.66;;;18.71;72.17
7335;BME280;3708;42.632;23.378;2022-09-27T09:08:09;93183.91;;;18.68;73.03
7335;BME280;3708;42.632;23.378;2022-09-27T09:10:48;93196.13;;;18.58;74.18
7335;BME280;3708;42.632;23.378;2022-09-27T09:13:51;93180.88;;;18.69;72.69
7335;BME280;3708;42.632;23.378;2022-09-27T09:16:30;93157.13;;;18.92;72.89
7335;BME280;3708;42.632;23.378;2022-09-27T09:19:22;93179.47;;;18.91;72.20
7335;BME280;3708;42.632;23.378;2022-09-27T09:22:00;93189.00;;;19.23;71.74
7335;BME280;3708;42.632;23.378;2022-09-27T09:24:50;93194.03;;;19.14;70.91
7335;BME280;3708;42.632;23.378;2022-09-27T09:27:30;93202.63;;;18.91;72.32
7335;BME280;3708;42.632;23.378;2022-09-27T09:30:18;93196.25;;;19.19;72.30
7335;BME280;3708;42.632;23.378;2022-09-27T09:32:56;93193.94;;;19.54;71.26
7335;BME280;3708;42.632;23.378;2022-09-27T09:35:28;93184.31;;;19.64;70.06
7335;BME280;3708;42.632;23.378;2022-09-27T09:38:01;93185.78;;;19.68;69.57
7335;BME280;3708;42.632;23.378;2022-09-27T09:40:35;93191.50;;;19.37;71.30
7335;BME280;3708;42.632;23.378;2022-09-27T09:43:12;93195.72;;;19.31;72.00
7335;BME280;3708;42.632;23.378;2022-09-27T09:45:44;93200.56;;;19.39;71.99
7335;BME280;3708;42.632;23.378;2022-09-27T09:48:16;93189.16;;;19.69;71.09
7335;BME280;3708;42.632;23.378;2022-09-27T09:50:52;93189.03;;;19.80;70.48
7335;BME280;3708;42.632;23.378;2022-09-27T09:53:22;93197.44;;;19.48;71.26
7335;BME280;3708;42.632;23.378;2022-09-27T09:55:57;93186.72;;;19.55;71.67
7335;BME280;3708;42.632;23.378;2022-09-27T09:58:29;93179.66;;;19.71;71.27
7335;BME280;3708;42.632;23.378;2022-09-27T10:01:12;93193.88;;;19.85;70.96
7335;BME280;3708;42.632;23.378;2022-09-27T10:03:41;93196.63;;;19.77;71.23
7335;BME280;3708;42.632;23.378;2022-09-27T10:06:09;93183.94;;;19.92;70.98
7335;BME280;3708;42.632;23.378;2022-09-27T10:08:38;93175.59;;;19.90;70.92
7335;BME280;3708;42.632;23.378;2022-09-27T10:11:16;93170.53;;;19.72;70.93
7335;BME280;3708;42.632;23.378;2022-09-27T10:13:45;93189.44;;;19.78;71.20
7335;BME280;3708;42.632;23.378;2022-09-27T10:16:15;93180.41;;;19.99;70.89
7335;BME280;3708;42.632;23.378;2022-09-27T10:18:43;93173.84;;;20.30;70.08
7335;BME280;3708;42.632;23.378;2022-09-27T10:21:14;93176.81;;;20.59;69.59
7335;BME280;3708;42.632;23.378;2022-09-27T10:24:06;93158.25;;;20.75;69.31
7335;BME280;3708;42.632;23.378;2022-09-27T10:26:39;93166.34;;;20.91;68.56
7335;BME280;3708;42.632;23.378;2022-09-27T10:29:19;93166.75;;;20.89;68.27
7335;BME280;3708;42.632;23.378;2022-09-27T10:31:48;93185.81;;;20.65;68.25
7335;BME280;3708;42.632;23.378;2022-09-27T10:34:24;93174.31;;;20.71;68.14
7335;BME280;3708;42.632;23.378;2022-09-27T10:37:06;93160.38;;;20.83;67.84
7335;BME280;3708;42.632;23.378;2022-09-27T10:39:33;93173.91;;;20.49;68.68
7335;BME280;3708;42.632;23.378;2022-09-27T10:42:19;93194.81;;;20.01;71.14
7335;BME280;3708;42.632;23.378;2022-09-27T10:44:46;93174.28;;;20.02;70.99
7335;BME280;3708;42.632;23.378;2022-09-27T10:47:17;93159.94;;;20.22;72.29
7335;BME280;3708;42.632;23.378;2022-09-27T10:49:50;93141.06;;;20.99;70.62
7335;BME280;3708;42.632;23.378;2022-09-27T10:52:19;93134.63;;;21.55;70.39
7335;BME280;3708;42.632;23.378;2022-09-27T10:54:53;93140.53;;;21.98;68.03
7335;BME280;3708;42.632;23.378;2022-09-27T10:57:26;93139.81;;;22.43;66.16
7335;BME280;3708;42.632;23.378;2022-09-27T10:59:56;93128.81;;;22.57;65.25
7335;BME280;3708;42.632;23.378;2022-09-27T11:02:29;93130.78;;;22.85;64.03
7335;BME280;3708;42.632;23.378;2022-09-27T11:05:08;93131.47;;;23.14;62.93
7335;BME280;3708;42.632;23.378;2022-09-27T11:07:36;93115.81;;;23.29;61.94
7335;BME280;3708;42.632;23.378;2022-09-27T11:10:21;93121.81;;;22.92;62.17
7335;BME280;3708;42.632;23.378;2022-09-27T11:13:07;93105.56;;;22.86;62.24
7335;BME280;3708;42.632;23.378;2022-09-27T11:15:45;93111.75;;;22.83;61.31
7335;BME280;3708;42.632;23.378;2022-09-27T11:18:23;93122.63;;;22.76;61.50
7335;BME280;3708;42.632;23.378;2022-09-27T11:21:04;93109.72;;;22.87;61.20
7335;BME280;3708;42.632;23.378;2022-09-27T11:23:45;93124.16;;;22.90;61.73
7335;BME280;3708;42.632;23.378;2022-09-27T11:26:25;93106.44;;;22.96;61.33
7335;BME280;3708;42.632;23.378;2022-09-27T11:29:07;93114.47;;;22.96;61.45
7335;BME280;3708;42.632;23.378;2022-09-27T11:32:12;93091.75;;;23.16;61.87
7335;BME280;3708;42.632;23.378;2022-09-27T11:35:49;93104.38;;;23.28;60.63
7335;BME280;3708;42.632;23.378;2022-09-27T11:38:28;93099.03;;;23.28;61.08
7335;BME280;3708;42.632;23.378;2022-09-27T11:41:06;93089.84;;;22.88;60.79
7335;BME280;3708;42.632;23.378;2022-09-27T11:43:59;93080.06;;;22.98;61.49
7335;BME280;3708;42.632;23.378;2022-09-27T11:46:33;93071.81;;;23.71;59.43
7335;BME280;3708;42.632;23.378;2022-09-27T11:49:25;93069.44;;;24.45;57.49
7335;BME280;3708;42.632;23.378;2022-09-27T11:52:07;93086.53;;;25.47;55.67
7335;BME280;3708;42.632;23.378;2022-09-27T11:54:52;93066.66;;;26.24;53.23
7335;BME280;3708;42.632;23.378;2022-09-27T11:57:28;93057.59;;;26.76;50.04
7335;BME280;3708;42.632;23.378;2022-09-27T12:00:10;93061.38;;;27.38;48.87
7335;BME280;3708;42.632;23.378;2022-09-27T12:06:05;93063.88;;;27.51;47.64
7335;BME280;3708;42.632;23.378;2022-09-27T12:08:53;93055.06;;;28.39;46.70
7335;BME280;3708;42.632;23.378;2022-09-27T12:11:31;93056.41;;;28.82;45.52
7335;BME280;3708;42.632;23.378;2022-09-27T12:14:05;93052.94;;;28.67;43.98
7335;BME280;3708;42.632;23.378;2022-09-27T12:16:36;93044.16;;;29.10;43.58
7335;BME280;3708;42.632;23.378;2022-09-27T12:19:13;93052.69;;;28.94;41.41
7335;BME280;3708;42.632;23.378;2022-09-27T12:21:45;93044.50;;;29.62;42.25
7335;BME280;3708;42.632;23.378;2022-09-27T12:24:19;93019.81;;;29.05;41.60
7335;BME280;3708;42.632;23.378;2022-09-27T12:26:50;93014.16;;;29.67;41.52
7335;BME280;3708;42.632;23.378;2022-09-27T12:29:21;93007.53;;;30.37;41.18
7335;BME280;3708;42.632;23.378;2022-09-27T12:31:58;93002.41;;;30.65;39.76
7335;BME280;3708;42.632;23.378;2022-09-27T12:34:34;92993.19;;;31.28;38.79
7335;BME280;3708;42.632;23.378;2022-09-27T12:37:11;92989.50;;;31.57;38.03
7335;BME280;3708;42.632;23.378;2022-09-27T12:39:52;92983.75;;;31.81;36.77
7335;BME280;3708;42.632;23.378;2022-09-27T12:42:30;92987.06;;;32.01;35.52
7335;BME280;3708;42.632;23.378;2022-09-27T12:45:01;92991.59;;;32.26;34.46
7335;BME280;3708;42.632;23.378;2022-09-27T12:47:55;92983.28;;;31.51;35.07
7335;BME280;3708;42.632;23.378;2022-09-27T12:50:31;92967.38;;;31.58;35.98
7335;BME280;3708;42.632;23.378;2022-09-27T12:53:20;92972.78;;;31.95;35.40
7335;BME280;3708;42.632;23.378;2022-09-27T12:56:08;92973.44;;;31.90;35.19
7335;BME280;3708;42.632;23.378;2022-09-27T13:02:06;92971.06;;;32.68;33.33
7335;BME280;3708;42.632;23.378;2022-09-27T13:04:57;92980.22;;;32.11;34.23
7335;BME280;3708;42.632;23.378;2022-09-27T13:07:41;92988.34;;;32.65;33.58
7335;BME280;3708;42.632;23.378;2022-09-27T13:10:41;92992.84;;;33.06;32.77
7335;BME280;3708;42.632;23.378;2022-09-27T13:13:18;92984.47;;;33.16;32.44
7335;BME280;3708;42.632;23.378;2022-09-27T13:15:56;92986.22;;;33.35;32.40
7335;BME280;3708;42.632;23.378;2022-09-27T13:18:56;92973.91;;;33.51;31.95
7335;BME280;3708;42.632;23.378;2022-09-27T13:21:53;92964.66;;;33.93;30.52
7335;BME280;3708;42.632;23.378;2022-09-27T13:27:41;92977.00;;;34.10;30.17
7335;BME280;3708;42.632;23.378;2022-09-27T13:33:41;92960.69;;;34.16;29.70
7335;BME280;3708;42.632;23.378;2022-09-27T13:36:33;92958.28;;;33.73;29.63
7335;BME280;3708;42.632;23.378;2022-09-27T13:39:17;92952.06;;;33.95;29.27
7335;BME280;3708;42.632;23.378;2022-09-27T13:42:20;92948.72;;;33.45;29.97
7335;BME280;3708;42.632;23.378;2022-09-27T13:48:26;92974.22;;;31.23;31.14
7335;BME280;3708;42.632;23.378;2022-09-27T13:51:05;92976.81;;;32.16;30.41
7335;BME280;3708;42.632;23.378;2022-09-27T13:53:55;92988.09;;;31.67;28.07
7335;BME280;3708;42.632;23.378;2022-09-27T13:56:49;92984.47;;;30.62;30.91
7335;BME280;3708;42.632;23.378;2022-09-27T13:59:23;92980.69;;;30.13;32.31
7335;BME280;3708;42.632;23.378;2022-09-27T14:01:57;92978.56;;;30.63;32.34